Time;durP1;ratioP1;P1;durP2;ratioP2;P2;SDS_P1;SDS_P2;PMS_P1;PMS_P2;Temp;Humidity;BMP_temperature;BMP_pressure;BME280_temperature;BME280_humidity;BME280_pressure;Samples;Min_cycle;Max_cycle;Signal;HPM_P1;HPM_P2
2022/04/08 00:04:17;;;;;;;1.88;0.98;;;10.50;71.40;;;;;;5105878;27;20384;-73
2022/04/08 00:06:42;;;;;;;1.83;1.00;;;10.50;71.80;;;;;;5071554;28;20036;-73
2022/04/08 00:09:08;;;;;;;2.75;1.05;;;10.50;71.90;;;;;;5087165;28;20111;-74
2022/04/08 00:11:34;;;;;;;2.85;1.10;;;10.50;71.90;;;;;;5052943;28;20397;-75
2022/04/08 00:14:00;;;;;;;1.88;1.08;;;10.50;71.90;;;;;;5078275;28;20064;-74
2022/04/08 00:16:27;;;;;;;1.90;0.90;;;10.40;71.90;;;;;;5085428;28;20032;-74
2022/04/08 00:18:53;;;;;;;0.95;0.90;;;10.40;71.90;;;;;;5069970;28;20043;-74
2022/04/08 00:21:19;;;;;;;1.48;1.05;;;10.40;71.90;;;;;;5071815;28;20093;-74
2022/04/08 00:23:45;;;;;;;0.95;0.90;;;10.50;71.90;;;;;;5071236;28;20033;-74
2022/04/08 00:26:11;;;;;;;2.35;1.10;;;10.40;71.90;;;;;;5075199;28;20295;-73
2022/04/08 00:28:37;;;;;;;0.80;0.80;;;10.40;71.90;;;;;;5066351;28;20483;-74
2022/04/08 00:31:04;;;;;;;1.48;1.10;;;10.40;71.90;;;;;;5101316;28;20032;-74
2022/04/08 00:33:33;;;;;;;1.88;1.15;;;10.40;71.90;;;;;;5071192;28;20036;-75
2022/04/08 00:35:59;;;;;;;0.82;0.80;;;10.40;71.90;;;;;;5073070;28;20161;-74
2022/04/08 00:38:25;;;;;;;2.17;0.90;;;10.40;71.90;;;;;;5072326;28;20406;-73
2022/04/08 00:40:51;;;;;;;1.77;1.00;;;10.30;71.90;;;;;;5075070;28;20046;-73
2022/04/08 00:43:18;;;;;;;1.23;0.90;;;10.30;71.90;;;;;;5066930;28;20024;-75
2022/04/08 00:45:45;;;;;;;1.77;1.02;;;10.30;72.00;;;;;;5058264;28;20025;-74
2022/04/08 00:48:11;;;;;;;2.22;1.00;;;10.30;72.00;;;;;;5068625;28;20448;-75
2022/04/08 00:50:39;;;;;;;1.23;0.93;;;10.30;72.00;;;;;;5069159;28;20055;-74
2022/04/08 00:53:06;;;;;;;0.98;0.90;;;10.30;72.00;;;;;;5068228;28;20082;-74
2022/04/08 00:55:33;;;;;;;1.02;0.90;;;10.30;72.00;;;;;;5068455;28;20489;-73
2022/04/08 00:58:03;;;;;;;1.15;0.93;;;10.30;72.00;;;;;;5091572;28;20036;-74
2022/04/08 01:00:34;;;;;;;2.53;1.10;;;10.30;72.00;;;;;;5084813;28;20236;-75
2022/04/08 01:02:59;;;;;;;1.60;1.08;;;10.30;72.00;;;;;;5073142;28;20040;-74
2022/04/08 01:05:26;;;;;;;1.23;1.00;;;10.20;72.00;;;;;;5070512;28;20433;-73
2022/04/08 01:07:54;;;;;;;0.88;0.70;;;10.20;72.00;;;;;;5089182;28;20021;-74
2022/04/08 01:10:21;;;;;;;1.05;0.90;;;10.20;72.00;;;;;;5060661;28;20029;-75
2022/04/08 01:12:49;;;;;;;1.58;1.20;;;10.20;72.00;;;;;;5069615;28;20127;-74
2022/04/08 01:15:17;;;;;;;1.63;1.13;;;10.20;72.00;;;;;;5040587;28;20131;-75
2022/04/08 01:17:43;;;;;;;1.50;0.90;;;10.20;72.00;;;;;;5060745;28;20028;-74
2022/04/08 01:20:09;;;;;;;1.65;0.90;;;10.20;72.00;;;;;;5040527;28;20021;-74
2022/04/08 01:22:36;;;;;;;4.03;1.17;;;10.20;72.00;;;;;;5043850;28;20033;-73
2022/04/08 01:25:06;;;;;;;1.83;0.90;;;10.20;72.10;;;;;;5044790;28;20706;-73
2022/04/08 01:27:32;;;;;;;1.85;1.05;;;10.20;72.00;;;;;;5037546;28;20032;-73
2022/04/08 01:29:58;;;;;;;2.70;1.30;;;10.10;72.00;;;;;;5037399;28;20024;-74
2022/04/08 01:32:24;;;;;;;1.60;1.00;;;10.10;72.00;;;;;;5043100;28;20048;-74
2022/04/08 01:34:52;;;;;;;1.15;0.85;;;10.10;71.90;;;;;;5040727;28;20021;-75
2022/04/08 01:37:21;;;;;;;1.27;0.93;;;10.10;72.00;;;;;;5022924;28;20452;-75
2022/04/08 01:39:47;;;;;;;1.85;1.00;;;10.10;71.90;;;;;;5076594;28;20103;-74
2022/04/08 01:42:13;;;;;;;1.65;0.90;;;10.10;72.00;;;;;;5037364;28;20722;-74
2022/04/08 01:44:39;;;;;;;1.60;1.10;;;10.10;71.90;;;;;;5038148;28;20056;-74
2022/04/08 01:47:06;;;;;;;2.33;1.00;;;10.10;71.90;;;;;;5053684;28;20123;-74
2022/04/08 01:49:32;;;;;;;1.77;1.00;;;10.10;72.60;;;;;;5058352;28;20060;-75
2022/04/08 01:51:58;;;;;;;3.75;1.20;;;10.10;71.90;;;;;;5052036;28;20431;-74
2022/04/08 01:54:24;;;;;;;3.35;1.00;;;10.00;71.90;;;;;;5073699;28;20031;-75
2022/04/08 01:56:50;;;;;;;1.70;1.08;;;10.00;71.90;;;;;;5052808;28;20107;-73
2022/04/08 01:59:15;;;;;;;1.80;1.00;;;10.00;71.90;;;;;;5062641;28;20036;-74
2022/04/08 02:01:41;;;;;;;1.58;1.00;;;10.00;71.90;;;;;;5053125;28;20555;-74
2022/04/08 02:04:08;;;;;;;1.55;1.00;;;10.00;71.90;;;;;;5036480;28;20055;-73
2022/04/08 02:06:40;;;;;;;1.15;1.05;;;10.00;71.90;;;;;;5043374;28;20032;-73
2022/04/08 02:09:07;;;;;;;2.25;1.20;;;9.90;71.90;;;;;;5069308;28;20047;-73
2022/04/08 02:11:34;;;;;;;2.92;1.15;;;9.90;71.90;;;;;;5045828;28;20511;-73
2022/04/08 02:14:00;;;;;;;2.72;1.15;;;9.90;71.90;;;;;;5048105;28;20033;-73
2022/04/08 02:16:26;;;;;;;2.00;1.10;;;9.90;71.90;;;;;;5040082;28;20025;-74
2022/04/08 02:18:51;;;;;;;2.38;1.23;;;9.80;71.80;;;;;;5033404;28;20091;-74
2022/04/08 02:21:19;;;;;;;3.15;1.02;;;9.80;71.80;;;;;;5055242;28;20032;-74
2022/04/08 02:23:49;;;;;;;1.52;0.90;;;9.80;72.50;;;;;;5046387;28;20032;-74
2022/04/08 02:26:16;;;;;;;1.58;0.90;;;9.80;71.90;;;;;;5038809;28;20087;-73
2022/04/08 02:28:43;;;;;;;3.15;1.42;;;9.80;71.80;;;;;;5054123;28;20392;-75
2022/04/08 02:31:09;;;;;;;2.20;0.93;;;9.80;71.90;;;;;;5056731;28;20474;-74
2022/04/08 02:33:35;;;;;;;1.83;1.10;;;9.70;71.80;;;;;;5068843;28;20082;-73
2022/04/08 02:36:01;;;;;;;1.90;1.00;;;9.70;71.80;;;;;;5061609;28;20044;-73
2022/04/08 02:38:27;;;;;;;1.17;1.00;;;9.70;71.80;;;;;;5076071;28;20401;-74
2022/04/08 02:40:52;;;;;;;2.35;1.17;;;9.70;71.80;;;;;;5041459;28;20077;-72
2022/04/08 02:43:18;;;;;;;1.92;1.10;;;9.70;71.90;;;;;;5040622;28;20048;-74
2022/04/08 02:45:44;;;;;;;3.30;1.25;;;9.60;71.80;;;;;;5052100;28;20380;-74
2022/04/08 02:48:13;;;;;;;1.42;1.00;;;9.60;71.80;;;;;;5053555;28;20067;-74
2022/04/08 02:50:40;;;;;;;3.33;1.30;;;9.60;71.80;;;;;;5057874;28;20084;-74
2022/04/08 02:53:05;;;;;;;2.58;1.02;;;9.60;71.80;;;;;;5077217;28;20032;-74
2022/04/08 02:55:31;;;;;;;2.13;1.05;;;9.60;71.80;;;;;;5056077;28;20044;-74
2022/04/08 02:57:57;;;;;;;1.50;1.00;;;9.60;71.80;;;;;;5031294;28;20397;-74
2022/04/08 03:00:23;;;;;;;2.90;1.20;;;9.50;71.80;;;;;;5055341;28;20032;-74
2022/04/08 03:02:49;;;;;;;2.53;1.20;;;9.50;71.80;;;;;;5039175;28;20226;-75
2022/04/08 03:05:15;;;;;;;3.65;1.50;;;9.50;71.80;;;;;;5052499;28;20032;-74
2022/04/08 03:07:41;;;;;;;1.77;1.30;;;9.50;71.80;;;;;;5054667;28;20056;-73
2022/04/08 03:10:09;;;;;;;2.85;1.60;;;9.50;71.80;;;;;;5058611;28;20025;-73
2022/04/08 03:12:35;;;;;;;2.20;1.17;;;9.40;71.80;;;;;;5053561;28;20021;-73
2022/04/08 03:15:01;;;;;;;2.67;1.23;;;9.40;71.80;;;;;;5074475;28;20473;-75
2022/04/08 03:17:27;;;;;;;2.08;0.98;;;9.40;71.90;;;;;;5057890;28;20089;-74
2022/04/08 03:19:53;;;;;;;2.17;1.13;;;9.30;71.80;;;;;;5059384;28;20423;-74
2022/04/08 03:22:20;;;;;;;2.08;1.23;;;9.30;71.80;;;;;;5052284;28;20401;-73
2022/04/08 03:24:51;;;;;;;2.25;1.30;;;9.30;71.80;;;;;;5052004;28;20040;-74
2022/04/08 03:27:17;;;;;;;2.28;1.20;;;9.30;71.80;;;;;;5019509;28;20048;-75
2022/04/08 03:29:43;;;;;;;1.83;1.02;;;9.30;71.80;;;;;;5058381;28;20034;-74
2022/04/08 03:32:09;;;;;;;3.25;1.30;;;9.30;71.80;;;;;;5052271;28;20381;-74
2022/04/08 03:34:35;;;;;;;1.77;1.05;;;9.30;71.90;;;;;;5057754;28;20028;-75
2022/04/08 03:37:01;;;;;;;1.77;1.60;;;9.20;71.80;;;;;;5053932;28;20036;-74
2022/04/08 03:39:27;;;;;;;2.05;1.20;;;9.20;71.80;;;;;;5040003;28;20082;-74
2022/04/08 03:41:53;;;;;;;1.33;1.00;;;9.20;71.90;;;;;;5036920;28;20082;-74
2022/04/08 03:44:19;;;;;;;2.40;1.30;;;9.20;71.90;;;;;;5076936;28;20611;-73
2022/04/08 03:46:46;;;;;;;2.17;1.10;;;9.20;71.90;;;;;;5057679;28;20090;-72
2022/04/08 03:49:16;;;;;;;2.22;1.20;;;9.20;71.90;;;;;;5058394;28;20016;-73
2022/04/08 03:51:43;;;;;;;2.13;1.30;;;9.20;71.90;;;;;;5072551;28;20503;-73
2022/04/08 03:54:09;;;;;;;2.50;1.15;;;9.20;71.90;;;;;;5072552;28;20117;-74
2022/04/08 03:56:36;;;;;;;2.15;1.20;;;9.20;72.00;;;;;;5047169;28;20063;-74
2022/04/08 03:59:02;;;;;;;2.05;1.10;;;9.20;71.90;;;;;;5076243;28;20044;-75
2022/04/08 04:01:28;;;;;;;0.88;0.88;;;9.10;71.90;;;;;;5072874;28;20477;-74
2022/04/08 04:03:54;;;;;;;2.75;1.20;;;9.10;71.90;;;;;;5035061;28;20098;-74
2022/04/08 04:06:19;;;;;;;2.70;1.20;;;9.10;71.90;;;;;;5041263;28;20036;-75
2022/04/08 04:08:45;;;;;;;1.30;0.90;;;9.10;71.90;;;;;;5037452;28;20064;-74
2022/04/08 04:11:17;;;;;;;1.00;1.00;;;9.10;71.90;;;;;;5051636;28;20113;-74
2022/04/08 04:13:43;;;;;;;1.13;1.02;;;9.10;71.90;;;;;;5052834;28;20032;-74
2022/04/08 04:16:10;;;;;;;1.70;1.10;;;9.10;71.90;;;;;;5056343;28;20032;-75
2022/04/08 04:18:36;;;;;;;1.42;0.90;;;9.10;72.00;;;;;;5067825;28;20024;-75
2022/04/08 04:21:02;;;;;;;2.10;1.20;;;9.00;71.90;;;;;;5051928;28;20074;-76
2022/04/08 04:23:28;;;;;;;1.42;1.08;;;9.00;71.90;;;;;;5069577;28;20044;-74
2022/04/08 04:25:54;;;;;;;2.13;1.10;;;9.00;72.00;;;;;;5059432;28;20067;-74
2022/04/08 04:28:20;;;;;;;1.88;1.30;;;9.00;71.90;;;;;;5031055;28;20441;-74
2022/04/08 04:30:45;;;;;;;1.92;1.00;;;9.00;71.90;;;;;;5051648;28;20487;-75
2022/04/08 04:33:11;;;;;;;1.67;1.17;;;9.00;71.90;;;;;;5052960;28;20033;-75
2022/04/08 04:35:38;;;;;;;1.08;1.00;;;8.90;71.90;;;;;;5072945;28;20036;-76
2022/04/08 04:38:05;;;;;;;0.90;0.90;;;8.90;71.90;;;;;;5034212;28;20481;-73
2022/04/08 04:40:31;;;;;;;0.98;0.98;;;8.90;71.90;;;;;;5052281;28;20032;-74
2022/04/08 04:42:57;;;;;;;1.92;1.10;;;8.90;71.90;;;;;;5061025;28;20126;-74
2022/04/08 04:45:24;;;;;;;0.95;0.95;;;8.90;71.90;;;;;;5050904;28;20117;-74
2022/04/08 04:47:50;;;;;;;0.85;0.85;;;8.90;72.00;;;;;;5051132;28;20020;-75
2022/04/08 04:50:16;;;;;;;2.15;1.20;;;8.80;71.90;;;;;;5040981;28;20032;-74
2022/04/08 04:52:41;;;;;;;1.33;1.10;;;8.80;71.90;;;;;;5070073;28;20037;-74
2022/04/08 04:55:07;;;;;;;1.30;1.00;;;8.80;71.90;;;;;;5067877;28;20467;-74
2022/04/08 04:57:34;;;;;;;1.63;1.10;;;8.80;71.90;;;;;;5067754;28;20389;-75
2022/04/08 05:00:00;;;;;;;1.33;1.00;;;8.80;71.90;;;;;;5059264;28;20027;-75
2022/04/08 05:02:26;;;;;;;1.50;0.98;;;8.80;72.00;;;;;;5070213;28;20526;-74
2022/04/08 05:04:52;;;;;;;1.13;1.00;;;8.80;72.00;;;;;;5051639;28;20025;-74
2022/04/08 05:07:18;;;;;;;3.05;1.33;;;8.70;71.90;;;;;;5079856;28;20452;-75
2022/04/08 05:09:43;;;;;;;2.33;1.10;;;8.70;72.00;;;;;;5081506;28;20028;-74
2022/04/08 05:12:10;;;;;;;1.27;1.17;;;8.70;72.00;;;;;;5048441;28;20024;-74
2022/04/08 05:14:36;;;;;;;4.10;1.23;;;8.70;72.30;;;;;;5056890;28;20056;-74
2022/04/08 05:17:02;;;;;;;1.40;1.10;;;8.70;72.00;;;;;;5053795;28;20055;-73
2022/04/08 05:19:27;;;;;;;1.85;1.30;;;8.60;71.90;;;;;;5060358;28;20082;-74
2022/04/08 05:21:53;;;;;;;1.10;1.00;;;8.60;72.00;;;;;;5039924;28;20595;-76
2022/04/08 05:24:20;;;;;;;2.28;1.48;;;8.60;72.00;;;;;;5052617;28;20469;-74
2022/04/08 05:26:46;;;;;;;1.92;1.38;;;8.60;72.00;;;;;;5055748;28;20149;-73
2022/04/08 05:29:12;;;;;;;2.63;1.20;;;8.50;72.00;;;;;;5054821;28;20082;-75
2022/04/08 05:31:37;;;;;;;1.42;1.10;;;8.50;71.90;;;;;;5041049;28;20040;-75
2022/04/08 05:34:03;;;;;;;2.22;1.40;;;8.50;72.00;;;;;;5036020;28;20032;-74
2022/04/08 05:36:29;;;;;;;1.90;1.20;;;8.50;72.00;;;;;;5037643;28;20023;-73
2022/04/08 05:38:55;;;;;;;1.80;1.10;;;8.50;72.00;;;;;;5053549;28;20748;-73
2022/04/08 05:41:21;;;;;;;3.17;1.45;;;8.50;72.00;;;;;;5071586;28;20085;-75
2022/04/08 05:43:47;;;;;;;1.35;1.20;;;8.40;72.00;;;;;;5056981;28;20048;-75
2022/04/08 05:46:14;;;;;;;1.95;1.20;;;8.40;72.00;;;;;;5045500;28;20029;-74
2022/04/08 05:48:41;;;;;;;3.42;1.27;;;8.40;72.00;;;;;;5071890;28;20032;-74
2022/04/08 05:51:08;;;;;;;2.05;1.20;;;8.50;72.10;;;;;;5054237;28;20033;-74
2022/04/08 05:53:33;;;;;;;2.92;1.50;;;8.40;72.00;;;;;;5072476;28;20035;-75
2022/04/08 05:56:02;;;;;;;2.45;1.33;;;8.40;72.00;;;;;;5020575;28;20468;-74
2022/04/08 05:58:28;;;;;;;2.53;1.30;;;8.40;72.10;;;;;;5037511;28;20032;-75
2022/04/08 06:00:54;;;;;;;2.70;1.40;;;8.40;72.10;;;;;;5053847;28;20354;-75
2022/04/08 06:03:19;;;;;;;1.83;1.30;;;8.30;72.00;;;;;;5053194;28;20055;-76
2022/04/08 06:05:45;;;;;;;1.20;1.10;;;8.30;72.00;;;;;;5053401;28;20024;-74
2022/04/08 06:08:11;;;;;;;1.48;1.30;;;8.30;72.10;;;;;;5053842;28;20041;-74
2022/04/08 06:10:37;;;;;;;1.67;1.25;;;8.40;72.20;;;;;;5045693;28;20025;-74
2022/04/08 06:13:03;;;;;;;2.25;1.40;;;8.30;72.10;;;;;;5033528;28;20025;-75
2022/04/08 06:15:29;;;;;;;2.58;1.30;;;8.30;72.10;;;;;;5036895;28;20036;-74
2022/04/08 06:17:55;;;;;;;1.25;1.15;;;8.30;72.10;;;;;;5054085;28;20036;-73
2022/04/08 06:20:22;;;;;;;1.75;1.35;;;8.30;72.20;;;;;;5071397;28;20060;-75
2022/04/08 06:22:49;;;;;;;1.33;1.23;;;8.30;72.20;;;;;;5069198;28;20036;-74
2022/04/08 06:25:20;;;;;;;1.55;1.23;;;8.30;72.20;;;;;;5071185;28;20149;-74
2022/04/08 06:27:58;;;;;;;1.10;1.10;;;8.30;72.20;;;;;;5052990;28;20446;-74
2022/04/08 06:30:25;;;;;;;2.00;1.33;;;8.30;72.30;;;;;;5071009;28;20029;-74
2022/04/08 06:32:51;;;;;;;2.13;1.50;;;8.30;72.30;;;;;;5071122;28;20024;-76
2022/04/08 06:35:18;;;;;;;1.52;1.23;;;8.30;72.30;;;;;;5036917;28;20502;-74
2022/04/08 06:37:43;;;;;;;3.15;1.58;;;8.30;72.30;;;;;;5061407;28;20465;-73
2022/04/08 06:40:10;;;;;;;1.35;1.15;;;8.30;72.30;;;;;;5052465;28;20099;-74
2022/04/08 06:42:36;;;;;;;1.85;1.40;;;8.30;72.40;;;;;;5053047;28;20027;-76
2022/04/08 06:45:04;;;;;;;3.20;1.60;;;8.30;72.40;;;;;;5052706;28;20028;-74
2022/04/08 06:47:29;;;;;;;1.35;1.25;;;8.30;72.40;;;;;;5030405;28;20095;-75
2022/04/08 06:49:55;;;;;;;1.40;1.30;;;8.30;72.40;;;;;;5073143;28;20036;-74
2022/04/08 06:52:21;;;;;;;2.85;1.42;;;8.30;72.40;;;;;;5044953;28;20040;-74
2022/04/08 06:54:47;;;;;;;2.50;1.40;;;8.30;72.40;;;;;;5052324;28;20032;-76
2022/04/08 06:57:13;;;;;;;2.22;1.27;;;8.30;72.40;;;;;;5036258;28;20036;-73
2022/04/08 06:59:41;;;;;;;1.58;1.30;;;8.30;72.50;;;;;;5053014;28;20036;-75
2022/04/08 07:02:08;;;;;;;2.10;1.33;;;8.30;72.50;;;;;;5069754;28;20213;-74
2022/04/08 07:04:35;;;;;;;2.35;1.30;;;8.30;72.50;;;;;;5062248;28;20048;-74
2022/04/08 07:07:04;;;;;;;2.60;1.77;;;8.30;72.50;;;;;;5053724;28;20033;-74
2022/04/08 07:09:32;;;;;;;2.10;1.40;;;8.40;72.60;;;;;;5069081;28;20116;-75
2022/04/08 07:11:58;;;;;;;1.67;1.20;;;8.30;72.50;;;;;;5070078;28;20520;-73
2022/04/08 07:14:24;;;;;;;3.25;1.85;;;8.30;72.50;;;;;;5056118;28;20075;-74
2022/04/08 07:16:50;;;;;;;1.50;1.40;;;8.40;72.60;;;;;;5055276;28;20060;-74
2022/04/08 07:19:16;;;;;;;1.83;1.42;;;8.40;72.60;;;;;;5045864;28;20035;-74
2022/04/08 07:21:41;;;;;;;1.83;1.25;;;8.40;72.60;;;;;;5062077;28;20024;-74
2022/04/08 07:24:07;;;;;;;2.88;1.30;;;8.40;72.60;;;;;;5060327;28;20044;-75
2022/04/08 07:26:33;;;;;;;1.60;1.30;;;8.40;72.60;;;;;;5056277;28;20035;-75
2022/04/08 07:29:00;;;;;;;1.63;1.33;;;8.40;72.60;;;;;;5054190;28;20482;-74
2022/04/08 07:31:26;;;;;;;1.83;1.38;;;8.40;72.60;;;;;;5057229;28;20020;-74
2022/04/08 07:33:52;;;;;;;1.85;1.45;;;8.50;72.70;;;;;;5080220;28;20024;-74
2022/04/08 07:36:17;;;;;;;1.30;1.20;;;8.50;73.30;;;;;;5064911;28;20033;-74
2022/04/08 07:38:43;;;;;;;1.30;1.20;;;8.50;72.60;;;;;;5052102;28;20086;-74
2022/04/08 07:41:09;;;;;;;1.40;1.27;;;8.50;72.60;;;;;;5052198;28;20025;-75
2022/04/08 07:43:35;;;;;;;1.50;1.40;;;8.50;72.60;;;;;;5070200;28;20083;-74
2022/04/08 07:46:01;;;;;;;1.50;1.20;;;8.60;72.70;;;;;;5035104;28;20078;-75
2022/04/08 07:48:27;;;;;;;1.45;1.30;;;8.60;72.70;;;;;;5035408;28;20390;-75
2022/04/08 07:50:54;;;;;;;1.80;1.30;;;8.60;72.70;;;;;;5076343;28;20012;-75
2022/04/08 07:53:20;;;;;;;2.15;1.52;;;8.60;72.70;;;;;;5043360;28;20130;-74
2022/04/08 07:55:45;;;;;;;1.45;1.35;;;8.60;72.70;;;;;;5048733;28;20575;-75
2022/04/08 07:58:11;;;;;;;1.92;1.40;;;8.60;72.70;;;;;;5064585;28;20055;-75
2022/04/08 08:00:37;;;;;;;1.67;1.10;;;8.70;72.70;;;;;;5051649;28;20035;-74
2022/04/08 08:03:03;;;;;;;1.40;1.30;;;8.70;72.80;;;;;;5069382;28;20052;-75
2022/04/08 08:05:31;;;;;;;1.55;1.20;;;8.70;72.70;;;;;;5067006;28;20101;-74
2022/04/08 08:08:01;;;;;;;2.13;1.58;;;8.70;72.70;;;;;;5034981;28;20032;-75
2022/04/08 08:10:29;;;;;;;1.40;1.30;;;8.80;72.80;;;;;;5051686;28;20044;-75
2022/04/08 08:12:56;;;;;;;2.20;1.20;;;8.80;72.80;;;;;;5063681;28;20029;-74
2022/04/08 08:15:22;;;;;;;2.20;1.30;;;8.80;72.80;;;;;;5051879;28;20029;-74
2022/04/08 08:17:49;;;;;;;1.38;1.20;;;8.80;72.80;;;;;;5051464;28;20032;-74
2022/04/08 08:20:17;;;;;;;1.38;1.20;;;8.90;72.80;;;;;;5050597;28;20025;-74
2022/04/08 08:22:43;;;;;;;1.50;1.40;;;8.90;72.80;;;;;;5057531;28;20025;-74
2022/04/08 08:25:11;;;;;;;1.88;1.48;;;8.90;72.80;;;;;;5037208;28;20024;-75
2022/04/08 08:27:42;;;;;;;1.05;1.02;;;8.90;72.80;;;;;;5048479;28;20017;-74
2022/04/08 08:30:12;;;;;;;2.17;1.40;;;9.00;72.90;;;;;;5065827;28;20126;-75
2022/04/08 08:32:39;;;;;;;2.15;1.40;;;9.00;72.90;;;;;;5044397;28;20465;-75
2022/04/08 08:35:09;;;;;;;2.50;1.38;;;9.00;72.90;;;;;;5056559;28;20032;-75
2022/04/08 08:37:35;;;;;;;1.88;1.20;;;9.00;72.90;;;;;;5033147;28;20077;-74
2022/04/08 08:40:03;;;;;;;1.35;1.25;;;9.10;72.90;;;;;;5055166;28;20094;-75
2022/04/08 08:42:30;;;;;;;1.30;1.20;;;9.10;72.90;;;;;;5047780;28;20040;-75
2022/04/08 08:44:56;;;;;;;2.50;1.40;;;9.20;72.90;;;;;;5055070;28;20389;-75
2022/04/08 08:47:22;;;;;;;1.35;1.15;;;9.20;72.90;;;;;;5072147;28;20090;-75
2022/04/08 08:49:50;;;;;;;1.25;1.15;;;9.20;72.90;;;;;;5046478;28;20021;-74
2022/04/08 08:52:19;;;;;;;1.48;1.35;;;9.20;72.90;;;;;;5054294;28;20481;-75
2022/04/08 08:54:46;;;;;;;1.40;1.20;;;9.30;72.90;;;;;;5073036;28;20027;-74
2022/04/08 08:57:18;;;;;;;1.40;1.30;;;9.30;72.80;;;;;;5021660;28;20119;-75
2022/04/08 08:59:44;;;;;;;1.77;1.38;;;9.40;72.90;;;;;;5079025;28;20028;-75
2022/04/08 09:02:12;;;;;;;1.60;1.50;;;9.40;72.80;;;;;;5072637;28;20102;-75
2022/04/08 09:04:42;;;;;;;1.92;1.33;;;9.40;72.80;;;;;;5029827;28;20275;-75
2022/04/08 09:07:20;;;;;;;2.83;1.30;;;9.40;72.80;;;;;;5054438;28;20036;-75
2022/04/08 09:09:51;;;;;;;1.52;1.30;;;9.50;72.80;;;;;;5073271;28;20024;-76
2022/04/08 09:12:18;;;;;;;2.25;1.17;;;9.60;72.80;;;;;;5072658;28;20028;-75
2022/04/08 09:14:51;;;;;;;1.40;1.30;;;9.60;72.70;;;;;;5070988;28;20016;-75
2022/04/08 09:17:18;;;;;;;1.40;1.30;;;9.60;72.70;;;;;;5037628;28;20024;-74
2022/04/08 09:19:58;;;;;;;1.27;1.17;;;9.70;72.70;;;;;;5037916;28;20552;-74
2022/04/08 09:22:30;;;;;;;2.20;1.30;;;9.70;73.40;;;;;;5054579;28;20020;-75
2022/04/08 09:25:10;;;;;;;1.40;1.30;;;9.80;72.70;;;;;;5054299;28;20024;-74
2022/04/08 09:27:40;;;;;;;1.45;1.30;;;9.80;72.70;;;;;;5054129;28;20086;-74
2022/04/08 09:30:08;;;;;;;2.45;1.30;;;9.80;72.60;;;;;;5054507;28;20028;-74
2022/04/08 09:32:35;;;;;;;2.42;1.40;;;9.90;72.60;;;;;;5054423;28;20029;-74
2022/04/08 09:35:01;;;;;;;3.30;1.48;;;9.90;72.60;;;;;;5036901;28;20073;-74
2022/04/08 09:37:28;;;;;;;1.40;1.30;;;9.90;72.50;;;;;;5054367;28;20484;-75
2022/04/08 09:39:56;;;;;;;1.58;1.40;;;10.00;72.50;;;;;;5054477;28;20048;-75
2022/04/08 09:42:42;;;;;;;1.90;1.35;;;10.00;72.50;;;;;;5053089;28;20036;-74
2022/04/08 09:45:09;;;;;;;;;;;10.10;72.60;;;;;;5062548;28;20021;-74
2022/04/08 09:47:35;;;;;;;2.35;1.55;;;10.20;72.40;;;;;;5070705;28;19904;-75
2022/04/08 09:50:01;;;;;;;1.38;1.25;;;10.10;72.20;;;;;;5052002;28;20025;-74
2022/04/08 09:52:27;;;;;;;1.55;1.30;;;10.20;72.40;;;;;;5045542;28;20025;-75
2022/04/08 09:54:57;;;;;;;3.30;1.50;;;10.20;72.40;;;;;;5054165;28;20028;-75
2022/04/08 09:57:23;;;;;;;1.35;1.25;;;10.30;72.40;;;;;;5071331;28;20028;-74
2022/04/08 09:59:58;;;;;;;2.35;1.77;;;10.30;72.40;;;;;;5036638;28;20025;-76
2022/04/08 10:02:28;;;;;;;1.65;1.48;;;10.40;72.40;;;;;;5069684;28;20017;-75
2022/04/08 10:04:55;;;;;;;1.67;1.42;;;10.40;72.30;;;;;;5053858;28;20020;-75
2022/04/08 10:07:22;;;;;;;1.63;1.40;;;10.50;72.30;;;;;;5037146;28;20040;-75
2022/04/08 10:10:02;;;;;;;2.25;1.50;;;10.60;72.30;;;;;;5053221;28;20052;-74
2022/04/08 10:12:35;;;;;;;2.08;1.38;;;10.60;72.30;;;;;;5071518;28;20039;-74
2022/04/08 10:15:09;;;;;;;1.42;1.30;;;10.70;72.40;;;;;;5045335;28;20028;-76
2022/04/08 10:17:34;;;;;;;2.22;1.40;;;10.70;72.30;;;;;;5069927;28;20031;-74
2022/04/08 10:20:20;;;;;;;2.13;1.40;;;10.70;72.20;;;;;;5036342;28;20024;-77
2022/04/08 10:22:47;;;;;;;2.58;1.50;;;10.80;72.40;;;;;;5053942;28;20089;-77
2022/04/08 10:25:17;;;;;;;1.38;1.25;;;10.80;72.10;;;;;;5061506;28;20052;-74
2022/04/08 10:27:44;;;;;;;2.28;1.30;;;10.90;72.20;;;;;;5053787;28;20032;-74
2022/04/08 10:30:21;;;;;;;2.10;1.48;;;10.90;72.10;;;;;;5034446;28;20032;-74
2022/04/08 10:33:02;;;;;;;1.52;1.40;;;11.00;72.20;;;;;;5083759;28;20028;-77
2022/04/08 10:35:28;;;;;;;2.53;1.30;;;11.00;72.20;;;;;;5068308;28;20032;-76
2022/04/08 10:38:12;;;;;;;1.67;1.50;;;11.10;72.10;;;;;;5058295;28;20029;-76
2022/04/08 10:40:40;;;;;;;2.42;1.40;;;11.10;72.20;;;;;;5038708;28;20195;-74
2022/04/08 10:43:07;;;;;;;2.70;1.60;;;11.20;72.10;;;;;;5052737;28;20029;-75
2022/04/08 10:45:34;;;;;;;2.00;1.55;;;11.20;72.10;;;;;;5069181;28;20386;-74
2022/04/08 10:48:02;;;;;;;1.50;1.40;;;11.30;72.10;;;;;;5051942;28;20626;-74
2022/04/08 10:50:34;;;;;;;1.77;1.50;;;11.30;72.10;;;;;;5053037;28;20046;-74
2022/04/08 10:53:05;;;;;;;2.67;1.60;;;11.30;72.00;;;;;;5070403;28;20039;-75
2022/04/08 10:55:31;;;;;;;2.05;1.42;;;11.30;71.90;;;;;;5055394;28;20045;-74
2022/04/08 10:57:58;;;;;;;2.95;1.50;;;11.40;71.90;;;;;;5053096;28;20024;-74
2022/04/08 11:00:25;;;;;;;2.33;1.60;;;11.40;71.90;;;;;;5051979;28;20029;-73
2022/04/08 11:02:54;;;;;;;1.50;1.40;;;11.50;71.90;;;;;;5070815;28;20048;-74
2022/04/08 11:05:23;;;;;;;2.35;1.50;;;11.50;71.90;;;;;;5045171;28;20461;-74
2022/04/08 11:07:53;;;;;;;2.35;1.50;;;11.60;71.80;;;;;;5057555;28;20528;-75
2022/04/08 11:10:21;;;;;;;1.60;1.50;;;11.60;71.80;;;;;;5071540;28;20039;-74
2022/04/08 11:12:53;;;;;;;1.60;1.50;;;11.60;71.80;;;;;;5064830;28;20103;-75
2022/04/08 11:15:24;;;;;;;1.95;1.60;;;11.70;71.80;;;;;;5051852;28;20032;-75
2022/04/08 11:17:52;;;;;;;2.90;1.52;;;11.70;71.70;;;;;;5019832;28;20078;-74
2022/04/08 11:20:20;;;;;;;1.85;1.50;;;11.80;71.80;;;;;;5052526;28;20027;-73
2022/04/08 11:22:49;;;;;;;1.73;1.40;;;11.80;71.70;;;;;;5069790;28;20115;-73
2022/04/08 11:25:29;;;;;;;3.25;1.58;;;11.80;71.70;;;;;;5035022;28;20069;-75
2022/04/08 11:28:03;;;;;;;2.28;1.48;;;11.90;71.80;;;;;;5069846;28;20027;-73
2022/04/08 11:30:31;;;;;;;1.60;1.50;;;11.90;71.70;;;;;;5052208;28;20568;-72
2022/04/08 11:32:58;;;;;;;1.85;1.55;;;12.00;71.70;;;;;;5052368;28;20711;-73
2022/04/08 11:35:28;;;;;;;1.58;1.48;;;12.00;71.70;;;;;;5035658;28;20033;-74
2022/04/08 11:37:55;;;;;;;2.00;1.48;;;12.00;71.60;;;;;;5051955;28;20024;-74
2022/04/08 11:40:21;;;;;;;2.05;1.70;;;12.10;71.60;;;;;;5051893;28;20051;-75
2022/04/08 11:42:48;;;;;;;2.60;1.83;;;12.10;71.60;;;;;;5069446;28;20036;-74
2022/04/08 11:45:15;;;;;;;2.55;1.50;;;12.10;71.60;;;;;;5035500;28;20035;-74
2022/04/08 11:47:49;;;;;;;4.05;1.90;;;12.20;71.60;;;;;;5052245;28;20028;-74
2022/04/08 11:50:25;;;;;;;1.83;1.60;;;12.20;71.50;;;;;;5046308;28;20107;-75
2022/04/08 11:52:56;;;;;;;2.35;1.80;;;12.20;71.40;;;;;;5035438;28;20054;-73
2022/04/08 11:55:25;;;;;;;1.77;1.67;;;12.30;71.40;;;;;;5051702;28;20024;-73
2022/04/08 11:57:51;;;;;;;2.00;1.80;;;12.30;71.30;;;;;;5051948;28;20141;-74
2022/04/08 12:00:22;;;;;;;3.22;1.90;;;12.40;71.40;;;;;;5051752;28;20036;-72
2022/04/08 12:02:49;;;;;;;3.58;1.80;;;12.40;71.30;;;;;;5049041;28;20049;-75
2022/04/08 12:05:24;;;;;;;2.97;1.80;;;12.50;71.30;;;;;;5037160;28;20116;-74
2022/04/08 12:07:57;;;;;;;3.08;1.90;;;12.50;71.20;;;;;;5059921;28;20013;-75
2022/04/08 12:10:23;;;;;;;2.58;1.67;;;12.50;71.20;;;;;;5040346;28;20031;-72
2022/04/08 12:12:50;;;;;;;3.30;1.90;;;12.60;71.20;;;;;;5056535;28;20033;-73
2022/04/08 12:15:22;;;;;;;3.10;1.67;;;12.60;71.20;;;;;;5054290;28;21831;-74
2022/04/08 12:17:49;;;;;;;3.13;1.80;;;12.60;71.10;;;;;;5035281;28;20033;-74
2022/04/08 12:20:20;;;;;;;2.15;1.80;;;12.60;71.10;;;;;;5051570;28;20039;-74
2022/04/08 12:22:47;;;;;;;2.35;1.80;;;12.70;71.10;;;;;;5051707;28;20025;-73
2022/04/08 12:25:14;;;;;;;2.63;2.00;;;12.70;71.10;;;;;;5068054;28;20039;-73
2022/04/08 12:27:40;;;;;;;3.30;1.98;;;12.70;71.00;;;;;;5068323;28;20082;-73
2022/04/08 12:30:11;;;;;;;2.30;1.85;;;12.70;71.00;;;;;;5069554;28;20024;-73
2022/04/08 12:32:45;;;;;;;2.47;1.98;;;12.70;70.90;;;;;;5032062;28;20120;-73
2022/04/08 12:35:12;;;;;;;2.67;2.03;;;12.80;71.00;;;;;;5089560;28;20032;-75
2022/04/08 12:37:38;;;;;;;2.33;1.85;;;12.80;70.90;;;;;;5054402;28;20115;-73
2022/04/08 12:40:05;;;;;;;2.63;1.92;;;12.80;70.90;;;;;;5051152;28;20630;-73
2022/04/08 12:42:35;;;;;;;2.53;1.80;;;12.80;70.90;;;;;;5068669;28;20024;-72
2022/04/08 12:45:02;;;;;;;3.38;2.10;;;12.80;70.90;;;;;;5069882;28;20106;-73
2022/04/08 12:47:27;;;;;;;2.20;1.70;;;12.80;70.90;;;;;;5067367;28;20040;-73
2022/04/08 12:49:53;;;;;;;3.22;1.95;;;12.80;70.80;;;;;;5034932;28;20029;-73
2022/04/08 12:52:19;;;;;;;2.95;1.85;;;12.90;70.90;;;;;;5034574;28;20031;-73
2022/04/08 12:54:45;;;;;;;2.38;2.00;;;12.90;70.90;;;;;;5034616;28;20086;-72
2022/04/08 12:57:10;;;;;;;3.63;2.10;;;12.90;70.80;;;;;;5051244;28;20523;-73